Terminal Aerodrome Forecast
Issued by NWS

Home | Current Version | Previous Version | Text Only | Print | Product List | Glossary On
Versions: 1 2 3 4 5 6 7 8 9 10 11 12 13
000
FTUS42 TJSJ 051700
TAFJMZ
TAF
TJMZ 051730Z 0518/0618 10011KT P6SM SCT040
     FM052330 06012KT P6SM FEW030
     FM061530 11010KT P6SM SCT040
      AMD NOT SKED 0522/0615=

USA.gov is the U.S. government's official web portal to all federal, state and local government web resources and services.